createdAt,value
2023-04-13T00:00:55.826Z,995.30
2023-04-13T00:01:56.158Z,995.28
2023-04-13T00:02:56.496Z,995.31
2023-04-13T00:03:56.727Z,995.26
2023-04-13T00:04:56.935Z,995.30
2023-04-13T00:05:57.202Z,995.30
2023-04-13T00:06:57.499Z,995.38
2023-04-13T00:07:57.821Z,995.37
2023-04-13T00:08:58.116Z,995.39
2023-04-13T00:09:58.452Z,995.38
2023-04-13T00:10:58.766Z,995.43
2023-04-13T00:11:59.102Z,995.41
2023-04-13T00:12:59.411Z,995.43
2023-04-13T00:13:59.876Z,995.37
2023-04-13T00:14:59.997Z,995.39
2023-04-13T00:16:00.330Z,995.40
2023-04-13T00:17:00.703Z,995.42
2023-04-13T00:18:00.995Z,995.45
2023-04-13T00:19:01.182Z,995.51
2023-04-13T00:20:01.519Z,995.49
2023-04-13T00:21:01.829Z,995.54
2023-04-13T00:22:02.145Z,995.55
2023-04-13T00:23:02.465Z,995.61
2023-04-13T00:24:02.826Z,995.54
2023-04-13T00:25:03.129Z,995.56
2023-04-13T00:26:03.471Z,995.46
2023-04-13T00:27:03.823Z,995.45
2023-04-13T00:28:04.124Z,995.41
2023-04-13T00:29:04.456Z,995.36
2023-04-13T00:30:04.784Z,995.31
2023-04-13T00:31:05.077Z,995.20
2023-04-13T00:32:05.368Z,995.32
2023-04-13T00:33:05.740Z,995.33
2023-04-13T00:34:05.943Z,995.32
2023-04-13T00:35:06.240Z,995.37
2023-04-13T00:36:06.558Z,995.36
2023-04-13T00:37:06.889Z,995.36
2023-04-13T00:38:07.218Z,995.38
2023-04-13T00:39:07.530Z,995.42
2023-04-13T00:40:07.873Z,995.41
2023-04-13T00:41:08.142Z,995.33
2023-04-13T00:42:08.503Z,995.32
2023-04-13T00:43:08.844Z,995.29
2023-04-13T00:44:09.165Z,995.28
2023-04-13T00:45:09.504Z,995.29
2023-04-13T00:46:09.823Z,995.29
2023-04-13T00:47:10.117Z,995.32
2023-04-13T00:48:10.430Z,995.31
2023-04-13T00:49:10.738Z,995.32
2023-04-13T00:50:11.052Z,995.28
2023-04-13T00:51:11.422Z,995.26
2023-04-13T00:52:11.635Z,995.27
2023-04-13T00:53:11.946Z,995.26
2023-04-13T00:54:12.262Z,995.19
2023-04-13T00:55:12.648Z,995.22
2023-04-13T00:56:12.845Z,995.24
2023-04-13T00:57:13.172Z,995.34
2023-04-13T00:58:13.726Z,995.36
2023-04-13T00:59:13.724Z,995.37
2023-04-13T01:00:14.081Z,995.30
2023-04-13T01:01:14.315Z,995.23
2023-04-13T01:02:14.691Z,995.24
2023-04-13T01:03:14.973Z,995.29
2023-04-13T01:04:15.123Z,995.32
2023-04-13T01:05:15.433Z,995.35
2023-04-13T01:06:15.709Z,995.33
2023-04-13T01:07:16.039Z,995.37
2023-04-13T01:08:16.357Z,995.43
2023-04-13T01:09:16.673Z,995.46
2023-04-13T01:10:17.008Z,995.47
2023-04-13T01:11:17.325Z,995.56
2023-04-13T01:12:17.665Z,995.51
2023-04-13T01:13:17.972Z,995.44
2023-04-13T01:14:18.265Z,995.53
2023-04-13T01:15:18.592Z,995.44
2023-04-13T01:16:18.980Z,995.52
2023-04-13T01:17:19.196Z,995.53
2023-04-13T01:18:19.488Z,995.59
2023-04-13T01:19:19.793Z,995.68
2023-04-13T01:20:20.101Z,995.68
2023-04-13T01:21:20.428Z,995.70
2023-04-13T01:22:20.754Z,995.72
2023-04-13T01:23:21.074Z,995.70
2023-04-13T01:24:21.353Z,995.76
2023-04-13T01:25:21.674Z,995.76
2023-04-13T01:26:21.981Z,995.71
2023-04-13T01:27:22.359Z,995.76
2023-04-13T01:28:22.636Z,995.78
2023-04-13T01:29:22.928Z,995.76
2023-04-13T01:30:23.242Z,995.78
2023-04-13T01:31:23.589Z,995.79
2023-04-13T01:32:23.855Z,995.74
2023-04-13T01:33:24.184Z,995.66
2023-04-13T01:34:24.496Z,995.72
2023-04-13T01:35:24.823Z,995.67
2023-04-13T01:36:25.113Z,995.73
2023-04-13T01:37:25.447Z,995.86
2023-04-13T01:38:25.761Z,995.82
2023-04-13T01:39:26.097Z,995.83
2023-04-13T01:40:26.378Z,995.85
2023-04-13T01:41:26.680Z,995.85
2023-04-13T01:42:27.017Z,995.87
2023-04-13T01:43:27.299Z,995.89
2023-04-13T01:44:27.626Z,995.87
2023-04-13T01:45:27.966Z,995.85
2023-04-13T01:46:28.285Z,995.85
2023-04-13T01:47:28.613Z,995.83
2023-04-13T01:48:28.910Z,995.85
2023-04-13T01:49:29.249Z,995.85
2023-04-13T01:50:29.534Z,995.83
2023-04-13T01:51:29.835Z,995.84
2023-04-13T01:52:30.179Z,995.75
2023-04-13T01:53:30.470Z,995.72
2023-04-13T01:54:30.773Z,995.87
2023-04-13T01:55:31.109Z,995.87
2023-04-13T01:56:31.420Z,995.93
2023-04-13T01:57:31.762Z,995.91
2023-04-13T01:58:32.044Z,995.90
2023-04-13T01:59:32.368Z,995.94
2023-04-13T02:00:32.688Z,995.92
2023-04-13T02:01:33.030Z,995.99
2023-04-13T02:02:33.452Z,996.08
2023-04-13T02:03:33.801Z,996.13
2023-04-13T02:04:33.904Z,996.18
2023-04-13T02:05:34.237Z,996.18
2023-04-13T02:06:34.544Z,996.18
2023-04-13T02:07:34.859Z,996.17
2023-04-13T02:08:35.174Z,996.09
2023-04-13T02:09:35.512Z,996.08
2023-04-13T02:10:35.796Z,996.12
2023-04-13T02:11:36.113Z,996.15
2023-04-13T02:12:36.424Z,996.19
2023-04-13T02:13:36.755Z,996.24
2023-04-13T02:14:37.033Z,996.30
2023-04-13T02:15:37.375Z,996.27
2023-04-13T02:16:37.716Z,996.33
2023-04-13T02:17:38.088Z,996.24
2023-04-13T02:18:38.210Z,996.26
2023-04-13T02:19:38.531Z,996.24
2023-04-13T02:20:38.829Z,996.31
2023-04-13T02:21:39.119Z,996.30
2023-04-13T02:22:39.477Z,996.28
2023-04-13T02:23:39.758Z,996.34
2023-04-13T02:24:40.076Z,996.34
2023-04-13T02:25:40.388Z,996.36
2023-04-13T02:26:40.724Z,996.34
2023-04-13T02:27:41.060Z,996.35
2023-04-13T02:28:41.349Z,996.38
2023-04-13T02:29:41.682Z,996.37
2023-04-13T02:30:41.976Z,996.40
2023-04-13T02:31:42.308Z,996.43
2023-04-13T02:32:42.678Z,996.45
2023-04-13T02:33:42.871Z,996.49
2023-04-13T02:34:43.182Z,996.45
2023-04-13T02:35:43.503Z,996.45
2023-04-13T02:36:43.812Z,996.49
2023-04-13T02:37:44.154Z,996.49
2023-04-13T02:38:44.441Z,996.49
2023-04-13T02:39:44.746Z,996.55
2023-04-13T02:40:45.058Z,996.44
2023-04-13T02:41:45.384Z,996.44
2023-04-13T02:42:45.701Z,996.44
2023-04-13T02:43:46.053Z,996.49
2023-04-13T02:44:46.403Z,996.47
2023-04-13T02:45:46.605Z,996.48
2023-04-13T02:46:46.909Z,996.50
2023-04-13T02:47:47.313Z,996.50
2023-04-13T02:48:47.483Z,996.51
2023-04-13T02:49:47.793Z,996.51
2023-04-13T02:50:48.115Z,996.51
2023-04-13T02:51:48.408Z,996.44
2023-04-13T02:52:48.744Z,996.49
2023-04-13T02:53:49.031Z,996.42
2023-04-13T02:54:49.335Z,996.43
2023-04-13T02:55:49.636Z,996.45
2023-04-13T02:56:49.955Z,996.48
2023-04-13T02:57:50.279Z,996.47
2023-04-13T02:58:50.607Z,996.53
2023-04-13T02:59:50.928Z,996.53
2023-04-13T03:00:51.251Z,996.57
2023-04-13T03:01:51.713Z,996.48
2023-04-13T03:02:51.977Z,996.51
2023-04-13T03:03:52.172Z,996.46
2023-04-13T03:04:52.569Z,996.51
2023-04-13T03:05:52.758Z,996.45
2023-04-13T03:06:53.086Z,996.43
2023-04-13T03:07:53.380Z,996.40
2023-04-13T03:08:53.751Z,996.47
2023-04-13T03:09:54.068Z,996.45
2023-04-13T03:10:54.375Z,996.43
2023-04-13T03:11:54.694Z,996.45
2023-04-13T03:12:55.076Z,996.43
2023-04-13T03:13:55.226Z,996.50
2023-04-13T03:14:55.519Z,996.47
2023-04-13T03:15:55.863Z,996.49
2023-04-13T03:16:56.238Z,996.46
2023-04-13T03:17:56.545Z,996.45
2023-04-13T03:18:56.840Z,996.48
2023-04-13T03:19:57.210Z,996.48
2023-04-13T03:20:57.388Z,996.45
2023-04-13T03:21:57.709Z,996.43
2023-04-13T03:22:58.020Z,996.42
2023-04-13T03:23:58.557Z,996.38
2023-04-13T03:24:58.639Z,996.43
2023-04-13T03:25:59.014Z,996.46
2023-04-13T03:26:59.317Z,996.48
2023-04-13T03:27:59.628Z,996.50
2023-04-13T03:28:59.941Z,996.48
2023-04-13T03:30:00.264Z,996.49
2023-04-13T03:31:00.603Z,996.49
2023-04-13T03:32:00.869Z,996.54
2023-04-13T03:33:01.206Z,996.59
2023-04-13T03:34:01.492Z,996.60
2023-04-13T03:35:01.774Z,996.59
2023-04-13T03:36:02.102Z,996.59
2023-04-13T03:37:02.407Z,996.57
2023-04-13T03:38:02.739Z,996.59
2023-04-13T03:39:03.078Z,996.61
2023-04-13T03:40:03.378Z,996.63
2023-04-13T03:41:03.678Z,996.67
2023-04-13T03:42:04.019Z,996.78
2023-04-13T03:43:04.325Z,996.77
2023-04-13T03:44:04.624Z,996.81
2023-04-13T03:45:04.937Z,996.80
2023-04-13T03:46:05.297Z,996.80
2023-04-13T03:47:05.598Z,996.86
2023-04-13T03:48:05.987Z,996.88
2023-04-13T03:49:06.200Z,996.87
2023-04-13T03:50:06.527Z,996.89
2023-04-13T03:51:06.878Z,996.94
2023-04-13T03:52:07.194Z,996.96
2023-04-13T03:53:07.519Z,997.02
2023-04-13T03:54:07.835Z,996.98
2023-04-13T03:55:08.201Z,997.09
2023-04-13T03:56:08.443Z,997.11
2023-04-13T03:57:08.763Z,997.17
2023-04-13T03:58:09.071Z,997.24
2023-04-13T03:59:09.384Z,997.25
2023-04-13T04:00:09.712Z,997.22
2023-04-13T04:01:10.061Z,997.25
2023-04-13T04:02:10.497Z,997.25
2023-04-13T04:03:10.761Z,997.23
2023-04-13T04:04:11.083Z,997.23
2023-04-13T04:05:11.304Z,997.18
2023-04-13T04:06:11.601Z,997.20
2023-04-13T04:07:11.925Z,997.20
2023-04-13T04:08:12.278Z,997.21
2023-04-13T04:09:12.599Z,997.20
2023-04-13T04:11:19.617Z,997.15
2023-04-13T04:12:19.880Z,997.19
2023-04-13T04:13:20.202Z,997.14
2023-04-13T04:14:20.520Z,997.18
2023-04-13T04:15:21.026Z,997.22
2023-04-13T04:16:21.174Z,997.27
2023-04-13T04:17:21.320Z,997.20
2023-04-13T04:18:21.703Z,997.22
2023-04-13T04:19:22.048Z,997.21
2023-04-13T04:20:22.257Z,997.26
2023-04-13T04:21:22.582Z,997.32
2023-04-13T04:22:22.882Z,997.33
2023-04-13T04:23:23.232Z,997.40
2023-04-13T04:24:23.765Z,997.39
2023-04-13T04:25:23.821Z,997.39
2023-04-13T04:26:24.125Z,997.41
2023-04-13T04:27:24.485Z,997.44
2023-04-13T04:28:24.687Z,997.46
2023-04-13T04:29:25.032Z,997.45
2023-04-13T04:30:25.402Z,997.46
2023-04-13T04:31:25.689Z,997.45
2023-04-13T04:32:25.860Z,997.47
2023-04-13T04:33:26.127Z,997.48
2023-04-13T04:34:26.450Z,997.51
2023-04-13T04:35:26.812Z,997.57
2023-04-13T04:36:27.174Z,997.55
2023-04-13T04:37:27.373Z,997.53
2023-04-13T04:38:27.709Z,997.54
2023-04-13T04:39:28.035Z,997.52
2023-04-13T04:40:28.389Z,997.57
2023-04-13T04:41:28.631Z,997.56
2023-04-13T04:42:28.968Z,997.56
2023-04-13T04:43:29.293Z,997.57
2023-04-13T04:44:29.660Z,997.59
2023-04-13T04:45:29.969Z,997.64
2023-04-13T04:46:30.232Z,997.65
2023-04-13T04:47:30.671Z,997.77
2023-04-13T04:48:30.899Z,997.76
2023-04-13T04:49:31.226Z,997.82
2023-04-13T04:50:31.588Z,997.81
2023-04-13T04:51:31.825Z,997.77
2023-04-13T04:52:32.166Z,997.80
2023-04-13T04:53:32.483Z,997.80
2023-04-13T04:54:32.796Z,997.82
2023-04-13T04:55:33.163Z,997.86
2023-04-13T04:56:33.463Z,997.86
2023-04-13T04:57:33.842Z,997.88
2023-04-13T04:58:34.133Z,997.94
2023-04-13T04:59:34.476Z,997.95
2023-04-13T05:00:34.816Z,997.91
2023-04-13T05:01:35.225Z,997.91
2023-04-13T05:02:35.564Z,997.90
2023-04-13T05:03:35.675Z,997.96
2023-04-13T05:04:36.029Z,998.01
2023-04-13T05:05:36.527Z,997.96
2023-04-13T05:06:36.631Z,997.93
2023-04-13T05:07:36.857Z,997.97
2023-04-13T05:08:37.075Z,998.03
2023-04-13T05:09:37.448Z,998.04
2023-04-13T05:10:37.712Z,998.10
2023-04-13T05:11:37.941Z,998.11
2023-04-13T05:12:38.176Z,998.04
2023-04-13T05:13:38.520Z,998.01
2023-04-13T05:14:38.753Z,998.06
2023-04-13T05:15:39.046Z,998.06
2023-04-13T05:16:39.348Z,998.04
2023-04-13T05:17:39.663Z,998.00
2023-04-13T05:18:39.950Z,997.95
2023-04-13T05:19:40.153Z,997.99
2023-04-13T05:20:40.388Z,997.92
2023-04-13T05:21:40.584Z,997.90
2023-04-13T05:22:40.957Z,997.89
2023-04-13T05:23:41.292Z,997.91
2023-04-13T05:24:41.521Z,997.86
2023-04-13T05:25:41.779Z,997.82
2023-04-13T05:26:41.988Z,997.84
2023-04-13T05:27:42.360Z,997.85
2023-04-13T05:28:42.590Z,997.87
2023-04-13T05:29:43.975Z,997.90
2023-04-13T05:30:43.286Z,997.88
2023-04-13T05:31:43.525Z,997.92
2023-04-13T05:32:43.866Z,997.92
2023-04-13T05:33:44.080Z,997.88
2023-04-13T05:34:44.432Z,997.93
2023-04-13T05:35:44.656Z,997.97
2023-04-13T05:36:44.922Z,997.95
2023-04-13T05:37:45.233Z,997.96
2023-04-13T05:38:45.600Z,997.94
2023-04-13T05:39:45.804Z,997.97
2023-04-13T05:40:46.202Z,998.02
2023-04-13T05:41:46.386Z,998.07
2023-04-13T05:42:46.763Z,998.11
2023-04-13T05:43:46.986Z,998.11
2023-04-13T05:44:47.337Z,998.17
2023-04-13T05:45:47.719Z,998.15
2023-04-13T05:46:47.905Z,998.11
2023-04-13T05:47:48.286Z,998.14
2023-04-13T05:48:48.615Z,998.15
2023-04-13T05:49:48.927Z,998.27
2023-04-13T05:50:49.293Z,998.32
2023-04-13T05:51:49.509Z,998.36
2023-04-13T05:52:49.861Z,998.39
2023-04-13T05:53:50.111Z,998.42
2023-04-13T05:54:50.352Z,998.45
2023-04-13T05:55:50.678Z,998.48
2023-04-13T05:56:50.909Z,998.46
2023-04-13T05:57:51.269Z,998.47
2023-04-13T05:58:51.516Z,998.52
2023-04-13T05:59:51.838Z,998.54
2023-04-13T06:00:52.070Z,998.58
2023-04-13T06:01:52.489Z,998.61
2023-04-13T06:02:52.662Z,998.59
2023-04-13T06:03:53.173Z,998.64
2023-04-13T06:04:53.353Z,998.61
2023-04-13T06:05:53.635Z,998.57
2023-04-13T06:06:53.848Z,998.50
2023-04-13T06:07:54.107Z,998.55
2023-04-13T06:08:54.448Z,998.60
2023-04-13T06:09:54.795Z,998.57
2023-04-13T06:10:55.063Z,998.56
2023-04-13T06:11:55.270Z,998.60
2023-04-13T06:12:55.617Z,998.56
2023-04-13T06:13:57.524Z,998.60
2023-04-13T06:14:56.260Z,998.63
2023-04-13T06:15:56.480Z,998.69
2023-04-13T06:16:56.762Z,998.73
2023-04-13T06:17:57.069Z,998.73
2023-04-13T06:18:57.394Z,998.75
2023-04-13T06:19:57.541Z,998.75
2023-04-13T06:20:57.792Z,998.72
2023-04-13T06:21:58.002Z,998.74
2023-04-13T06:22:58.261Z,998.79
2023-04-13T06:23:58.497Z,998.77
2023-04-13T06:24:58.725Z,998.79
2023-04-13T06:25:59.106Z,998.77
2023-04-13T06:26:59.341Z,998.81
2023-04-13T06:27:59.595Z,998.79
2023-04-13T06:29:00.093Z,998.81
2023-04-13T06:30:00.167Z,998.84
2023-04-13T06:31:00.476Z,998.86
2023-04-13T06:32:00.729Z,998.80
2023-04-13T06:33:01.000Z,998.78
2023-04-13T06:34:01.344Z,998.81
2023-04-13T06:35:01.539Z,998.83
2023-04-13T06:36:01.831Z,998.81
2023-04-13T06:37:02.042Z,998.88
2023-04-13T06:38:02.431Z,998.92
2023-04-13T06:39:02.626Z,998.94
2023-04-13T06:40:02.983Z,998.89
2023-04-13T06:41:03.389Z,998.89
2023-04-13T06:42:03.579Z,998.86
2023-04-13T06:43:03.829Z,998.87
2023-04-13T06:44:04.183Z,998.87
2023-04-13T06:45:04.550Z,998.89
2023-04-13T06:46:04.865Z,998.95
2023-04-13T06:47:05.182Z,999.03
2023-04-13T06:48:05.450Z,998.99
2023-04-13T06:49:05.679Z,998.99
2023-04-13T06:50:05.943Z,999.01
2023-04-13T06:51:06.181Z,999.00
2023-04-13T06:52:06.426Z,999.04
2023-04-13T06:53:06.665Z,999.01
2023-04-13T06:54:06.934Z,999.00
2023-04-13T06:55:07.141Z,999.02
2023-04-13T06:56:07.412Z,998.96
2023-04-13T06:57:07.650Z,998.97
2023-04-13T06:58:07.893Z,998.98
2023-04-13T06:59:08.388Z,998.91
2023-04-13T07:00:21.751Z,998.99
2023-04-13T07:01:09.877Z,998.98
2023-04-13T07:02:09.144Z,999.04
2023-04-13T07:03:09.622Z,999.09
2023-04-13T07:04:09.791Z,999.03
2023-04-13T07:05:10.014Z,999.01
2023-04-13T07:06:10.289Z,999.06
2023-04-13T07:07:10.503Z,999.09
2023-04-13T07:08:10.828Z,999.11
2023-04-13T07:09:11.170Z,999.13
2023-04-13T07:10:11.560Z,999.12
2023-04-13T07:11:11.792Z,999.16
2023-04-13T07:12:12.133Z,999.17
2023-04-13T07:13:12.490Z,999.20
2023-04-13T07:14:12.737Z,999.21
2023-04-13T07:15:12.999Z,999.27
2023-04-13T07:16:13.261Z,999.27
2023-04-13T07:17:13.617Z,999.25
2023-04-13T07:18:13.932Z,999.28
2023-04-13T07:19:14.250Z,999.27
2023-04-13T07:20:14.610Z,999.28
2023-04-13T07:21:14.870Z,999.31
2023-04-13T07:22:15.428Z,999.29
2023-04-13T07:23:15.343Z,999.38
2023-04-13T07:24:15.683Z,999.38
2023-04-13T07:25:15.945Z,999.38
2023-04-13T07:26:16.171Z,999.41
2023-04-13T07:27:16.393Z,999.37
2023-04-13T07:28:16.648Z,999.47
2023-04-13T07:29:16.900Z,999.43
2023-04-13T07:30:17.271Z,999.42
2023-04-13T07:31:17.519Z,999.49
2023-04-13T07:32:20.313Z,999.54
2023-04-13T07:33:18.227Z,999.58
2023-04-13T07:34:18.432Z,999.59
2023-04-13T07:35:18.662Z,999.48
2023-04-13T07:36:18.890Z,999.51
2023-04-13T07:37:19.214Z,999.48
2023-04-13T07:38:19.589Z,999.45
2023-04-13T07:39:19.797Z,999.48
2023-04-13T07:40:20.027Z,999.48
2023-04-13T07:41:20.366Z,999.53
2023-04-13T07:42:20.755Z,999.54
2023-04-13T07:43:20.978Z,999.54
2023-04-13T07:44:21.334Z,999.57
2023-04-13T07:45:21.546Z,999.57
2023-04-13T07:46:21.898Z,999.56
2023-04-13T07:47:22.096Z,999.57
2023-04-13T07:48:22.492Z,999.51
2023-04-13T07:49:22.760Z,999.56
2023-04-13T07:50:22.936Z,999.56
2023-04-13T07:51:23.319Z,999.55
2023-04-13T07:52:23.559Z,999.55
2023-04-13T07:53:23.879Z,999.60
2023-04-13T07:54:24.260Z,999.63
2023-04-13T07:55:24.489Z,999.66
2023-04-13T07:56:24.822Z,999.67
2023-04-13T07:57:25.191Z,999.68
2023-04-13T07:58:25.416Z,999.74
2023-04-13T07:59:25.687Z,999.72
2023-04-13T08:00:25.917Z,999.65
2023-04-13T08:01:26.256Z,999.64
2023-04-13T08:02:26.684Z,999.57
2023-04-13T08:03:27.022Z,999.56
2023-04-13T08:04:27.407Z,999.56
2023-04-13T08:05:27.541Z,999.64
2023-04-13T08:06:27.803Z,999.64
2023-04-13T08:07:28.123Z,999.69
2023-04-13T08:08:28.496Z,999.73
2023-04-13T08:09:28.708Z,999.64
2023-04-13T08:10:29.075Z,999.70
2023-04-13T08:11:29.337Z,999.70
2023-04-13T08:12:29.672Z,999.69
2023-04-13T08:13:29.919Z,999.72
2023-04-13T08:14:30.139Z,999.77
2023-04-13T08:15:30.661Z,999.81
2023-04-13T08:16:30.884Z,999.84
2023-04-13T08:17:31.112Z,999.87
2023-04-13T08:18:31.353Z,999.86
2023-04-13T08:19:31.586Z,999.90
2023-04-13T08:20:31.934Z,999.90
2023-04-13T08:21:32.294Z,999.87
2023-04-13T08:22:32.528Z,999.91
2023-04-13T08:23:32.778Z,999.88
2023-04-13T08:24:33.103Z,999.78
2023-04-13T08:25:33.342Z,999.80
2023-04-13T08:26:33.594Z,999.76
2023-04-13T08:27:33.954Z,999.82
2023-04-13T08:28:34.192Z,999.86
2023-04-13T08:29:34.416Z,999.85
2023-04-13T08:30:34.765Z,999.86
2023-04-13T08:31:35.014Z,999.91
2023-04-13T08:32:35.274Z,999.95
2023-04-13T08:33:35.491Z,999.88
2023-04-13T08:34:35.725Z,999.79
2023-04-13T08:35:35.985Z,999.76
2023-04-13T08:36:36.321Z,999.82
2023-04-13T08:37:36.572Z,999.84
2023-04-13T08:38:36.978Z,999.89
2023-04-13T08:39:37.121Z,999.92
2023-04-13T08:40:37.473Z,999.94
2023-04-13T08:41:39.251Z,999.91
2023-04-13T08:42:38.060Z,999.90
2023-04-13T08:43:38.334Z,999.88
2023-04-13T08:44:38.605Z,999.86
2023-04-13T08:45:38.910Z,999.87
2023-04-13T08:46:39.079Z,999.83
2023-04-13T08:47:39.519Z,999.80
2023-04-13T08:48:52.785Z,999.85
2023-04-13T08:49:41.047Z,999.84
2023-04-13T08:50:40.357Z,999.82
2023-04-13T08:51:40.626Z,999.84
2023-04-13T08:52:40.898Z,999.92
2023-04-13T08:53:41.199Z,999.93
2023-04-13T08:54:41.461Z,999.99
2023-04-13T08:55:41.741Z,999.99
2023-04-13T08:56:46.360Z,999.95
2023-04-13T08:57:43.286Z,1000.00
2023-04-13T08:58:42.642Z,1000.07
2023-04-13T08:59:42.916Z,1000.03
2023-04-13T09:00:43.251Z,1000.06
2023-04-13T09:01:43.630Z,1000.09
2023-04-13T09:02:56.143Z,1000.06
2023-04-13T09:03:45.218Z,1000.14
2023-04-13T09:04:44.481Z,1000.20
2023-04-13T09:05:44.684Z,1000.16
2023-04-13T09:06:45.100Z,1000.22
2023-04-13T09:07:45.267Z,1000.18
2023-04-13T09:08:45.557Z,1000.08
2023-04-13T09:09:45.892Z,1000.11
2023-04-13T09:10:46.131Z,1000.14
2023-04-13T09:11:48.458Z,1000.08
2023-04-13T09:12:46.739Z,1000.16
2023-04-13T09:13:47.075Z,1000.09
2023-04-13T09:14:47.389Z,1000.20
2023-04-13T09:15:47.675Z,1000.17
2023-04-13T09:16:47.946Z,1000.17
2023-04-13T09:17:48.285Z,1000.17
2023-04-13T09:18:48.564Z,1000.22
2023-04-13T09:19:49.051Z,1000.11
2023-04-13T09:20:49.149Z,1000.09
2023-04-13T09:21:49.435Z,1000.13
2023-04-13T09:22:49.784Z,1000.20
2023-04-13T09:23:50.070Z,1000.16
2023-04-13T09:24:50.305Z,1000.23
2023-04-13T09:25:50.600Z,1000.26
2023-04-13T09:26:50.868Z,1000.22
2023-04-13T09:27:51.149Z,1000.23
2023-04-13T09:28:51.370Z,1000.25
2023-04-13T09:29:51.635Z,1000.27
2023-04-13T09:30:51.968Z,1000.37
2023-04-13T09:31:52.259Z,1000.35
2023-04-13T09:32:52.550Z,1000.33
2023-04-13T09:33:52.781Z,1000.31
2023-04-13T09:34:53.173Z,1000.26
2023-04-13T09:35:53.256Z,1000.34
2023-04-13T09:36:55.244Z,1000.35
2023-04-13T09:37:53.762Z,1000.25
2023-04-13T09:38:54.122Z,1000.29
2023-04-13T09:39:54.268Z,1000.22
2023-04-13T09:40:54.607Z,1000.19
2023-04-13T09:41:54.824Z,1000.22
2023-04-13T09:42:55.135Z,1000.16
2023-04-13T09:43:55.364Z,1000.14
2023-04-13T09:44:55.601Z,1000.11
2023-04-13T09:45:55.937Z,1000.16
2023-04-13T09:46:56.206Z,1000.24
2023-04-13T09:47:56.460Z,1000.24
2023-04-13T09:48:57.811Z,1000.18
2023-04-13T09:49:57.053Z,1000.25
2023-04-13T09:50:57.284Z,1000.20
2023-04-13T09:51:57.555Z,1000.18
2023-04-13T09:52:57.896Z,1000.24
2023-04-13T09:53:58.231Z,1000.28
2023-04-13T09:54:58.526Z,1000.23
2023-04-13T09:55:58.767Z,1000.22
2023-04-13T09:56:59.031Z,1000.21
2023-04-13T09:57:59.335Z,1000.22
2023-04-13T09:58:59.757Z,1000.22
2023-04-13T09:59:59.808Z,1000.22
2023-04-13T10:01:00.087Z,1000.24
2023-04-13T10:02:00.486Z,1000.25
2023-04-13T10:03:00.645Z,1000.25
2023-04-13T10:04:01.070Z,1000.26
2023-04-13T10:05:01.149Z,1000.20
2023-04-13T10:06:01.508Z,1000.19
2023-04-13T10:07:01.769Z,1000.26
2023-04-13T10:08:01.989Z,1000.28
2023-04-13T10:09:02.168Z,1000.25
2023-04-13T10:10:02.494Z,1000.34
2023-04-13T10:11:02.730Z,1000.37
2023-04-13T10:12:03.058Z,1000.37
2023-04-13T10:13:03.363Z,1000.36
2023-04-13T10:14:03.619Z,1000.41
2023-04-13T10:15:04.039Z,1000.37
2023-04-13T10:16:04.402Z,1000.38
2023-04-13T10:17:04.422Z,1000.43
2023-04-13T10:18:04.753Z,1000.36
2023-04-13T10:19:05.019Z,1000.30
2023-04-13T10:20:05.221Z,1000.30
2023-04-13T10:21:05.470Z,1000.29
2023-04-13T10:22:07.548Z,1000.34
2023-04-13T10:23:05.999Z,1000.28
2023-04-13T10:24:11.229Z,1000.37
2023-04-13T10:25:07.547Z,1000.35
2023-04-13T10:26:06.853Z,1000.37
2023-04-13T10:27:07.073Z,1000.38
2023-04-13T10:28:07.311Z,1000.38
2023-04-13T10:29:07.538Z,1000.42
2023-04-13T10:30:07.779Z,1000.37
2023-04-13T10:31:08.036Z,1000.34
2023-04-13T10:32:08.345Z,1000.31
2023-04-13T10:33:08.787Z,1000.35
2023-04-13T10:34:08.730Z,1000.31
2023-04-13T10:35:08.955Z,1000.35
2023-04-13T10:36:09.217Z,1000.33
2023-04-13T10:37:09.486Z,1000.35
2023-04-13T10:38:09.757Z,1000.34
2023-04-13T10:39:10.020Z,1000.36
2023-04-13T10:40:10.335Z,1000.33
2023-04-13T10:41:10.570Z,1000.34
2023-04-13T10:42:10.839Z,1000.33
2023-04-13T10:43:11.104Z,1000.35
2023-04-13T10:44:11.339Z,1000.39
2023-04-13T10:45:11.604Z,1000.29
2023-04-13T10:46:11.847Z,1000.29
2023-04-13T10:47:12.290Z,1000.32
2023-04-13T10:48:12.396Z,1000.30
2023-04-13T10:49:12.620Z,1000.35
2023-04-13T10:50:12.863Z,1000.35
2023-04-13T10:51:13.103Z,1000.36
2023-04-13T10:52:13.350Z,1000.41
2023-04-13T10:53:13.600Z,1000.39
2023-04-13T10:54:13.888Z,1000.38
2023-04-13T10:55:14.125Z,1000.41
2023-04-13T10:56:14.385Z,1000.45
2023-04-13T10:57:14.650Z,1000.42
2023-04-13T10:58:14.930Z,1000.45
2023-04-13T10:59:15.154Z,1000.50
2023-04-13T11:00:15.406Z,1000.46
2023-04-13T11:01:15.696Z,1000.51
2023-04-13T11:02:16.024Z,1000.49
2023-04-13T11:03:17.437Z,1000.44
2023-04-13T11:04:18.595Z,1000.46
2023-04-13T11:05:16.917Z,1000.49
2023-04-13T11:06:17.145Z,1000.46
2023-04-13T11:07:17.424Z,1000.43
2023-04-13T11:08:17.677Z,1000.45
2023-04-13T11:09:17.910Z,1000.44
2023-04-13T11:10:18.151Z,1000.43
2023-04-13T11:11:18.398Z,1000.44
2023-04-13T11:12:18.671Z,1000.45
2023-04-13T11:13:18.928Z,1000.43
2023-04-13T11:14:19.359Z,1000.41
2023-04-13T11:15:19.423Z,1000.41
2023-04-13T11:16:19.731Z,1000.45
2023-04-13T11:17:20.050Z,1000.43
2023-04-13T11:18:20.175Z,1000.48
2023-04-13T11:19:20.427Z,1000.56
2023-04-13T11:20:20.674Z,1000.50
2023-04-13T11:21:20.943Z,1000.54
2023-04-13T11:22:21.178Z,1000.53
2023-04-13T11:23:21.421Z,1000.55
2023-04-13T11:24:21.673Z,1000.63
2023-04-13T11:25:21.925Z,1000.57
2023-04-13T11:26:22.197Z,1000.62
2023-04-13T11:27:22.406Z,1000.68
2023-04-13T11:28:22.720Z,1000.64
2023-04-13T11:29:22.957Z,1000.63
2023-04-13T11:30:23.189Z,1000.72
2023-04-13T11:31:23.550Z,1000.73
2023-04-13T11:32:23.858Z,1000.73
2023-04-13T11:33:24.071Z,1000.80
2023-04-13T11:34:24.307Z,1000.79
2023-04-13T11:35:24.590Z,1000.84
2023-04-13T11:36:24.857Z,1000.83
2023-04-13T11:37:25.142Z,1000.80
2023-04-13T11:38:25.345Z,1000.87
2023-04-13T11:39:25.606Z,1000.85
2023-04-13T11:40:25.872Z,1000.84
2023-04-13T11:41:26.101Z,1000.87
2023-04-13T11:42:26.380Z,1000.88
2023-04-13T11:43:26.612Z,1000.93
2023-04-13T11:44:26.854Z,1000.99
2023-04-13T11:45:27.131Z,1000.98
2023-04-13T11:46:27.484Z,1000.91
2023-04-13T11:47:27.639Z,1000.94
2023-04-13T11:48:27.858Z,1000.92
2023-04-13T11:49:28.134Z,1000.95
2023-04-13T11:50:28.395Z,1000.92
2023-04-13T11:51:28.666Z,1000.93
2023-04-13T11:52:28.893Z,1000.88
2023-04-13T11:53:29.128Z,1000.92
2023-04-13T11:54:29.383Z,1000.97
2023-04-13T11:55:30.227Z,1000.93
2023-04-13T11:56:29.897Z,1000.98
2023-04-13T11:57:30.159Z,1000.89
2023-04-13T11:58:30.794Z,1000.98
2023-04-13T11:59:30.725Z,1000.98
2023-04-13T12:00:30.975Z,1000.89
2023-04-13T12:01:34.538Z,1000.87
2023-04-13T12:02:33.893Z,1000.84
2023-04-13T12:03:46.987Z,1000.91
2023-04-13T12:04:33.397Z,1000.93
2023-04-13T12:05:33.564Z,1000.85
2023-04-13T12:06:33.022Z,1000.90
2023-04-13T12:07:33.371Z,1000.93
2023-04-13T12:08:33.941Z,1000.94
2023-04-13T12:09:54.051Z,1000.97
2023-04-13T12:11:41.566Z,1000.94
2023-04-13T12:13:36.574Z,1001.00
2023-04-13T12:14:52.106Z,1000.97
2023-04-13T12:15:45.650Z,1001.03
2023-04-13T12:17:03.152Z,1000.98
2023-04-13T12:17:40.984Z,1000.99
2023-04-13T12:18:37.978Z,1001.04
2023-04-13T12:19:38.211Z,1001.14
2023-04-13T12:20:36.935Z,1001.18
2023-04-13T12:21:37.195Z,1001.24
2023-04-13T12:22:49.813Z,1001.21
2023-04-13T12:23:38.798Z,1001.24
2023-04-13T12:24:38.559Z,1001.23
2023-04-13T12:25:39.351Z,1001.23
2023-04-13T12:27:38.942Z,1001.13
2023-04-13T12:28:39.156Z,1001.09
2023-04-13T12:29:39.494Z,1001.15